createdAt,value
2023-05-25T00:01:44.261Z,10.32
2023-05-25T00:04:11.750Z,10.82
2023-05-25T00:06:41.697Z,10.93
2023-05-25T00:09:08.547Z,10.00
2023-05-25T00:11:35.537Z,9.10
2023-05-25T00:14:02.423Z,8.40
2023-05-25T00:16:29.624Z,8.15
2023-05-25T00:18:57.676Z,8.70
2023-05-25T00:21:26.218Z,10.55
2023-05-25T00:23:53.416Z,12.90
2023-05-25T00:26:20.445Z,11.45
2023-05-25T00:28:49.834Z,11.05
2023-05-25T00:31:17.058Z,10.65
2023-05-25T00:33:44.285Z,11.52
2023-05-25T00:36:11.303Z,10.88
2023-05-25T00:38:39.433Z,11.60
2023-05-25T00:41:06.529Z,12.13
2023-05-25T00:43:33.545Z,11.23
2023-05-25T00:46:01.059Z,10.85
2023-05-25T00:48:28.175Z,9.70
2023-05-25T00:51:00.150Z,11.23
2023-05-25T00:53:27.158Z,10.93
2023-05-25T00:56:03.646Z,9.82
2023-05-25T00:58:33.729Z,9.60
2023-05-25T01:01:03.634Z,9.10
2023-05-25T01:03:37.897Z,9.05
2023-05-25T01:06:09.777Z,9.25
2023-05-25T01:08:38.526Z,8.73
2023-05-25T01:11:06.839Z,9.48
2023-05-25T01:13:35.177Z,9.52
2023-05-25T01:16:02.889Z,9.70
2023-05-25T01:18:29.970Z,10.18
2023-05-25T01:21:02.139Z,8.98
2023-05-25T01:23:35.319Z,9.77
2023-05-25T01:26:08.138Z,9.60
2023-05-25T01:28:41.165Z,9.48
2023-05-25T01:31:09.503Z,9.43
2023-05-25T01:33:37.358Z,9.70
2023-05-25T01:36:05.412Z,8.95
2023-05-25T01:38:32.472Z,9.18
2023-05-25T01:40:59.471Z,9.38
2023-05-25T01:43:26.613Z,8.85
2023-05-25T01:46:02.796Z,9.60
2023-05-25T01:48:56.251Z,9.68
2023-05-25T01:54:05.788Z,8.75
2023-05-25T01:56:34.126Z,9.48
2023-05-25T01:59:02.766Z,9.20
2023-05-25T02:01:31.314Z,9.10
2023-05-25T02:03:59.440Z,10.32
2023-05-25T02:06:26.660Z,10.98
2023-05-25T02:08:53.545Z,9.50
2023-05-25T02:11:20.559Z,10.40
2023-05-25T02:13:47.683Z,9.82
2023-05-25T02:16:14.730Z,10.02
2023-05-25T02:18:44.748Z,9.18
2023-05-25T02:21:12.271Z,10.02
2023-05-25T02:23:39.188Z,10.85
2023-05-25T02:26:06.434Z,10.32
2023-05-25T02:28:33.322Z,10.18
2023-05-25T02:31:00.661Z,10.05
2023-05-25T02:33:27.615Z,9.85
2023-05-25T02:35:54.588Z,9.65
2023-05-25T02:38:21.578Z,8.95
2023-05-25T02:40:48.903Z,9.45
2023-05-25T02:43:15.898Z,10.25
2023-05-25T02:45:43.031Z,9.88
2023-05-25T02:48:10.381Z,9.70
2023-05-25T02:50:38.476Z,10.45
2023-05-25T02:53:05.783Z,9.40
2023-05-25T02:55:33.432Z,9.40
2023-05-25T02:58:01.033Z,10.00
2023-05-25T03:00:28.829Z,10.13
2023-05-25T03:02:56.012Z,10.73
2023-05-25T03:05:23.233Z,11.35
2023-05-25T03:07:50.485Z,10.60
2023-05-25T03:10:17.583Z,11.32
2023-05-25T03:12:44.545Z,10.38
2023-05-25T03:15:13.313Z,10.20
2023-05-25T03:17:40.603Z,10.20
2023-05-25T03:20:10.645Z,10.35
2023-05-25T03:22:37.650Z,9.50
2023-05-25T03:25:05.293Z,11.60
2023-05-25T03:27:32.554Z,11.43
2023-05-25T03:29:59.722Z,10.68
2023-05-25T03:32:26.738Z,11.43
2023-05-25T03:34:54.046Z,10.27
2023-05-25T03:37:21.319Z,11.68
2023-05-25T03:39:48.192Z,9.90
2023-05-25T03:42:15.025Z,10.35
2023-05-25T03:44:41.969Z,11.07
2023-05-25T03:47:09.012Z,10.95
2023-05-25T03:49:35.898Z,11.43
2023-05-25T03:52:02.840Z,10.55
2023-05-25T03:54:29.918Z,10.90
2023-05-25T03:56:58.753Z,10.18
2023-05-25T03:59:26.147Z,10.82
2023-05-25T04:01:53.348Z,10.45
2023-05-25T04:04:21.066Z,10.60
2023-05-25T04:06:49.860Z,11.55
2023-05-25T04:09:17.024Z,11.27
2023-05-25T04:11:46.252Z,11.43
2023-05-25T04:14:13.221Z,10.77
2023-05-25T04:16:42.822Z,11.52
2023-05-25T04:19:09.716Z,12.82
2023-05-25T04:21:36.756Z,12.07
2023-05-25T04:24:03.754Z,12.13
2023-05-25T04:26:32.067Z,10.65
2023-05-25T04:28:59.305Z,10.73
2023-05-25T04:31:27.489Z,10.85
2023-05-25T04:33:56.196Z,12.55
2023-05-25T04:36:23.821Z,12.32
2023-05-25T04:38:54.890Z,12.07
2023-05-25T04:41:21.805Z,12.60
2023-05-25T04:44:05.665Z,13.80
2023-05-25T04:46:37.872Z,12.73
2023-05-25T04:49:06.038Z,12.48
2023-05-25T04:51:33.026Z,13.32
2023-05-25T04:54:00.218Z,13.60
2023-05-25T04:56:27.214Z,14.13
2023-05-25T04:58:54.404Z,14.38
2023-05-25T05:01:21.304Z,13.32
2023-05-25T05:03:48.231Z,14.23
2023-05-25T05:06:15.537Z,15.10
2023-05-25T05:08:42.821Z,15.55
2023-05-25T05:11:10.377Z,13.95
2023-05-25T05:13:37.386Z,14.07
2023-05-25T05:16:04.465Z,14.13
2023-05-25T05:18:32.267Z,13.20
2023-05-25T05:20:59.150Z,12.48
2023-05-25T05:23:25.964Z,12.52
2023-05-25T05:25:52.902Z,13.98
2023-05-25T05:28:20.379Z,11.27
2023-05-25T05:30:47.566Z,11.52
2023-05-25T05:33:15.037Z,12.15
2023-05-25T05:35:42.431Z,11.93
2023-05-25T05:38:09.588Z,13.07
2023-05-25T05:40:36.612Z,11.30
2023-05-25T05:43:03.817Z,12.52
2023-05-25T05:45:31.212Z,11.55
2023-05-25T05:47:58.449Z,12.48
2023-05-25T05:50:25.512Z,12.63
2023-05-25T05:52:53.740Z,12.88
2023-05-25T05:55:21.075Z,12.77
2023-05-25T05:57:48.248Z,12.27
2023-05-25T06:00:17.062Z,12.60
2023-05-25T06:02:44.227Z,12.95
2023-05-25T06:05:11.206Z,12.70
2023-05-25T06:07:39.359Z,12.20
2023-05-25T06:10:06.954Z,13.05
2023-05-25T06:12:33.938Z,13.40
2023-05-25T06:15:01.275Z,12.80
2023-05-25T06:17:28.417Z,11.80
2023-05-25T06:19:55.531Z,12.05
2023-05-25T06:22:28.011Z,13.15
2023-05-25T06:24:56.709Z,12.10
2023-05-25T06:27:23.771Z,12.73
2023-05-25T06:29:50.690Z,11.60
2023-05-25T06:32:17.753Z,11.65
2023-05-25T06:34:44.742Z,11.68
2023-05-25T06:37:12.195Z,11.38
2023-05-25T06:39:40.644Z,11.85
2023-05-25T06:42:09.083Z,10.57
2023-05-25T06:44:36.821Z,11.73
2023-05-25T06:47:03.957Z,10.68
2023-05-25T06:49:31.179Z,10.95
2023-05-25T06:51:58.403Z,10.63
2023-05-25T06:54:25.423Z,10.23
2023-05-25T06:56:52.611Z,10.88
2023-05-25T06:59:19.752Z,10.18
2023-05-25T07:01:47.842Z,10.65
2023-05-25T07:04:14.745Z,11.10
2023-05-25T07:06:42.157Z,10.25
2023-05-25T07:09:09.017Z,10.57
2023-05-25T07:11:35.943Z,9.60
2023-05-25T07:14:02.859Z,10.93
2023-05-25T07:16:29.753Z,10.15
2023-05-25T07:18:57.515Z,9.25
2023-05-25T07:21:26.792Z,9.75
2023-05-25T07:23:53.718Z,10.40
2023-05-25T07:26:23.072Z,10.73
2023-05-25T07:28:49.875Z,10.57
2023-05-25T07:31:17.041Z,10.20
2023-05-25T07:33:44.306Z,10.55
2023-05-25T07:36:12.566Z,11.02
2023-05-25T07:38:39.542Z,12.10
2023-05-25T07:41:06.595Z,10.25
2023-05-25T07:43:33.489Z,10.73
2023-05-25T07:46:04.156Z,10.43
2023-05-25T07:48:31.342Z,9.85
2023-05-25T07:50:58.562Z,9.07
2023-05-25T07:53:25.959Z,9.10
2023-05-25T07:55:52.930Z,9.50
2023-05-25T07:58:19.985Z,9.40
2023-05-25T08:00:47.076Z,9.95
2023-05-25T08:03:14.081Z,9.30
2023-05-25T08:05:41.444Z,9.75
2023-05-25T08:08:08.591Z,8.55
2023-05-25T08:10:35.517Z,9.07
2023-05-25T08:13:02.441Z,8.90
2023-05-25T08:15:29.629Z,9.10
2023-05-25T08:17:57.042Z,9.13
2023-05-25T08:20:25.241Z,8.18
2023-05-25T08:22:53.832Z,9.25
2023-05-25T08:25:21.458Z,8.77
2023-05-25T08:27:48.924Z,8.63
2023-05-25T08:30:16.191Z,10.27
2023-05-25T08:32:43.472Z,9.40
2023-05-25T08:35:10.459Z,8.60
2023-05-25T08:37:37.691Z,8.70
2023-05-25T08:40:06.684Z,9.45
2023-05-25T08:42:33.706Z,9.75
2023-05-25T08:45:02.592Z,8.50
2023-05-25T08:47:33.978Z,9.40
2023-05-25T08:50:05.032Z,10.80
2023-05-25T08:52:35.550Z,10.35
2023-05-25T08:55:05.973Z,9.60
2023-05-25T08:57:51.597Z,8.57
2023-05-25T09:00:24.722Z,8.93
2023-05-25T09:03:09.849Z,8.88
2023-05-25T09:05:41.090Z,10.70
2023-05-25T09:08:09.811Z,12.55
2023-05-25T09:10:38.229Z,10.32
2023-05-25T09:13:19.576Z,11.00
2023-05-25T09:15:49.174Z,10.15
2023-05-25T09:18:16.349Z,9.82
2023-05-25T09:20:46.164Z,9.07
2023-05-25T09:23:15.041Z,9.50
2023-05-25T09:25:42.603Z,10.38
2023-05-25T09:30:40.001Z,9.70
2023-05-25T09:33:14.132Z,8.13
2023-05-25T09:35:41.356Z,10.05
2023-05-25T09:38:08.804Z,8.10
2023-05-25T09:40:37.999Z,8.43
2023-05-25T09:43:05.428Z,7.82
2023-05-25T09:45:32.616Z,8.45
2023-05-25T09:48:00.359Z,9.20
2023-05-25T09:50:30.142Z,7.95
2023-05-25T09:53:02.564Z,8.45
2023-05-25T09:55:44.019Z,8.88
2023-05-25T09:58:17.408Z,7.38
2023-05-25T10:00:46.252Z,7.43
2023-05-25T10:03:15.463Z,7.75
2023-05-25T10:05:42.829Z,8.02
2023-05-25T10:08:11.413Z,7.03
2023-05-25T10:10:40.145Z,8.43
2023-05-25T10:13:09.732Z,7.47
2023-05-25T10:15:43.292Z,7.28
2023-05-25T10:18:12.849Z,8.35
2023-05-25T10:20:40.366Z,7.07
2023-05-25T10:23:13.326Z,8.00
2023-05-25T10:25:51.718Z,7.20
2023-05-25T10:28:35.634Z,7.03
2023-05-25T10:31:03.927Z,8.00
2023-05-25T10:33:32.461Z,7.50
2023-05-25T10:36:09.295Z,6.95
2023-05-25T10:38:44.615Z,6.57
2023-05-25T10:41:12.487Z,7.65
2023-05-25T10:43:40.381Z,6.47
2023-05-25T10:46:08.022Z,6.75
2023-05-25T10:48:39.493Z,5.20
2023-05-25T10:51:11.785Z,7.55
2023-05-25T10:53:39.337Z,6.68
2023-05-25T10:56:09.011Z,5.80
2023-05-25T10:58:36.600Z,6.07
2023-05-25T11:01:08.088Z,4.60
2023-05-25T11:03:44.639Z,5.03
2023-05-25T11:06:13.694Z,5.60
2023-05-25T11:08:59.142Z,6.10
2023-05-25T11:11:47.222Z,5.55
2023-05-25T11:14:27.963Z,4.75
2023-05-25T11:17:16.128Z,4.80
2023-05-25T11:19:51.064Z,4.88
2023-05-25T11:22:35.702Z,4.15
2023-05-25T11:25:23.416Z,4.70
2023-05-25T11:27:54.354Z,4.78
2023-05-25T11:30:28.555Z,4.47
2023-05-25T11:32:59.712Z,4.88
2023-05-25T11:35:26.940Z,4.22
2023-05-25T11:37:53.793Z,4.88
2023-05-25T11:40:23.593Z,4.28
2023-05-25T11:42:51.384Z,4.60
2023-05-25T11:45:18.568Z,4.63
2023-05-25T11:47:45.751Z,4.30
2023-05-25T11:50:17.299Z,4.75
2023-05-25T11:52:44.245Z,4.70
2023-05-25T11:55:15.235Z,6.10
2023-05-25T11:57:42.523Z,5.28
2023-05-25T12:00:13.693Z,5.70
2023-05-25T12:02:41.973Z,4.70
2023-05-25T12:05:11.025Z,4.63
2023-05-25T12:07:47.134Z,5.40
2023-05-25T12:10:19.375Z,5.85
2023-05-25T12:12:48.034Z,5.63
2023-05-25T12:15:23.754Z,4.90
2023-05-25T12:17:52.365Z,5.03
2023-05-25T12:20:20.185Z,5.00
2023-05-25T12:22:47.756Z,5.13
2023-05-25T12:25:18.477Z,6.70
2023-05-25T12:27:45.649Z,5.63
2023-05-25T12:30:12.956Z,6.50
2023-05-25T12:33:06.171Z,5.95
2023-05-25T12:35:49.573Z,5.93
2023-05-25T12:38:22.150Z,4.68
2023-05-25T12:41:07.852Z,5.50
2023-05-25T12:43:43.315Z,6.93
2023-05-25T12:46:10.580Z,5.32
2023-05-25T12:48:37.534Z,6.63
2023-05-25T12:51:04.834Z,6.95
2023-05-25T12:53:31.722Z,5.40
2023-05-25T12:56:04.777Z,5.88
2023-05-25T12:58:32.067Z,6.72
2023-05-25T13:00:59.294Z,6.38
2023-05-25T13:03:26.221Z,5.78
2023-05-25T13:06:03.702Z,5.82
2023-05-25T13:08:30.913Z,6.68
2023-05-25T13:10:58.521Z,5.88
2023-05-25T13:13:28.091Z,6.45
2023-05-25T13:15:55.303Z,5.75
2023-05-25T13:18:22.414Z,6.25
2023-05-25T13:20:51.827Z,6.80
2023-05-25T13:23:20.362Z,7.07
2023-05-25T13:25:47.265Z,6.43
2023-05-25T13:28:14.066Z,6.53
2023-05-25T13:30:42.624Z,7.07
2023-05-25T13:33:25.369Z,5.93
2023-05-25T13:35:58.843Z,6.15
2023-05-25T13:38:25.907Z,6.20
2023-05-25T13:40:53.138Z,5.90
2023-05-25T13:43:20.240Z,6.97
2023-05-25T13:45:48.140Z,7.22
2023-05-25T13:48:15.352Z,7.00
2023-05-25T13:50:43.343Z,6.70
2023-05-25T13:53:13.841Z,6.82
2023-05-25T13:55:40.823Z,7.70
2023-05-25T13:58:07.928Z,6.72
2023-05-25T14:00:35.201Z,6.60
2023-05-25T14:03:02.478Z,6.82
2023-05-25T14:05:30.364Z,6.35
2023-05-25T14:07:58.482Z,6.40
2023-05-25T14:10:25.474Z,6.30
2023-05-25T14:12:53.935Z,5.88
2023-05-25T14:15:20.910Z,6.18
2023-05-25T14:17:48.112Z,5.65
2023-05-25T14:20:25.587Z,5.53
2023-05-25T14:22:53.598Z,6.18
2023-05-25T14:25:20.804Z,5.78
2023-05-25T14:27:47.700Z,5.35
2023-05-25T14:30:15.067Z,5.45
2023-05-25T14:32:42.270Z,5.03
2023-05-25T14:35:09.794Z,5.25
2023-05-25T14:37:36.929Z,5.20
2023-05-25T14:40:04.436Z,4.80
2023-05-25T14:42:31.603Z,5.07
2023-05-25T14:44:58.482Z,5.85
2023-05-25T14:47:25.518Z,6.35
2023-05-25T14:49:52.703Z,5.95
2023-05-25T14:52:19.684Z,5.97
2023-05-25T14:54:46.591Z,5.95
2023-05-25T14:57:15.770Z,5.40
2023-05-25T14:59:42.974Z,5.35
2023-05-25T15:02:10.329Z,4.60
2023-05-25T15:04:37.221Z,4.88
2023-05-25T15:07:04.384Z,5.03
2023-05-25T15:09:33.360Z,5.55
2023-05-25T15:12:00.583Z,5.47
2023-05-25T15:14:27.476Z,5.65
2023-05-25T15:16:54.527Z,6.38
2023-05-25T15:19:21.379Z,5.45
2023-05-25T15:21:48.228Z,5.70
2023-05-25T15:24:17.054Z,5.20
2023-05-25T15:26:45.056Z,6.65
2023-05-25T15:29:11.942Z,5.53
2023-05-25T15:31:38.901Z,5.72
2023-05-25T15:34:06.178Z,6.28
2023-05-25T15:36:33.053Z,5.82
2023-05-25T15:39:00.123Z,6.55
2023-05-25T15:41:27.490Z,5.85
2023-05-25T15:43:58.666Z,5.88
2023-05-25T15:46:26.243Z,6.75
2023-05-25T15:48:53.734Z,7.43
2023-05-25T15:51:21.150Z,6.85
2023-05-25T15:53:48.532Z,6.60
2023-05-25T15:56:16.535Z,6.68
2023-05-25T15:58:47.371Z,6.97
2023-05-25T16:01:14.634Z,7.03
2023-05-25T16:03:43.378Z,6.35
2023-05-25T16:06:10.711Z,7.03
2023-05-25T16:08:37.611Z,7.82
2023-05-25T16:11:04.551Z,8.55
2023-05-25T16:13:31.395Z,7.28
2023-05-25T16:15:58.400Z,7.13
2023-05-25T16:18:25.771Z,7.28
2023-05-25T16:20:56.639Z,8.05
2023-05-25T16:23:24.387Z,7.55
2023-05-25T16:25:51.643Z,7.72
2023-05-25T16:28:18.886Z,6.45
2023-05-25T16:30:45.746Z,6.47
2023-05-25T16:33:12.971Z,6.68
2023-05-25T16:35:39.792Z,6.35
2023-05-25T16:38:06.565Z,6.00
2023-05-25T16:40:33.620Z,6.10
2023-05-25T16:43:00.483Z,6.13
2023-05-25T16:45:27.747Z,6.05
2023-05-25T16:47:54.729Z,5.80
2023-05-25T16:50:22.204Z,5.95
2023-05-25T16:52:49.321Z,8.50
2023-05-25T16:55:16.483Z,7.10
2023-05-25T16:57:43.768Z,7.03
2023-05-25T17:00:11.873Z,6.90
2023-05-25T17:02:39.094Z,7.35
2023-05-25T17:05:06.982Z,6.70
2023-05-25T17:07:34.799Z,7.50
2023-05-25T17:10:02.175Z,7.00
2023-05-25T17:12:29.328Z,6.47
2023-05-25T17:14:58.144Z,6.40
2023-05-25T17:17:28.056Z,7.57
2023-05-25T17:19:55.462Z,6.75
2023-05-25T17:22:22.905Z,6.80
2023-05-25T17:24:50.128Z,6.93
2023-05-25T17:27:17.366Z,8.13
2023-05-25T17:29:44.283Z,7.72
2023-05-25T17:32:12.665Z,7.43
2023-05-25T17:34:39.874Z,7.95
2023-05-25T17:37:07.075Z,7.15
2023-05-25T17:39:33.946Z,8.40
2023-05-25T17:42:01.435Z,7.28
2023-05-25T17:44:28.248Z,6.97
2023-05-25T17:46:55.192Z,6.43
2023-05-25T17:49:22.137Z,7.20
2023-05-25T17:51:48.935Z,6.50
2023-05-25T17:54:18.620Z,6.97
2023-05-25T17:56:46.852Z,6.68
2023-05-25T17:59:13.599Z,7.00
2023-05-25T18:01:41.864Z,6.57
2023-05-25T18:04:09.044Z,6.72
2023-05-25T18:06:37.014Z,7.07
2023-05-25T18:09:04.576Z,8.52
2023-05-25T18:11:33.680Z,6.43
2023-05-25T18:14:00.619Z,6.45
2023-05-25T18:16:27.609Z,6.82
2023-05-25T18:18:54.478Z,7.20
2023-05-25T18:21:21.254Z,6.63
2023-05-25T18:23:48.409Z,7.65
2023-05-25T18:26:15.340Z,6.70
2023-05-25T18:28:42.175Z,6.75
2023-05-25T18:31:09.146Z,6.72
2023-05-25T18:33:36.038Z,6.72
2023-05-25T18:36:02.840Z,6.07
2023-05-25T18:38:29.624Z,6.25
2023-05-25T18:40:56.495Z,6.07
2023-05-25T18:43:23.288Z,5.60
2023-05-25T18:45:50.098Z,6.30
2023-05-25T18:48:18.953Z,5.47
2023-05-25T18:50:46.215Z,5.55
2023-05-25T18:53:13.086Z,5.88
2023-05-25T18:55:39.953Z,5.15
2023-05-25T18:58:07.046Z,5.57
2023-05-25T19:00:34.085Z,5.78
2023-05-25T19:03:01.192Z,6.22
2023-05-25T19:05:28.133Z,5.78
2023-05-25T19:07:59.657Z,5.25
2023-05-25T19:10:27.183Z,5.30
2023-05-25T19:12:54.072Z,5.40
2023-05-25T19:15:21.307Z,5.43
2023-05-25T19:17:48.281Z,5.38
2023-05-25T19:20:15.482Z,5.53
2023-05-25T19:22:42.565Z,5.43
2023-05-25T19:25:09.526Z,4.93
2023-05-25T19:27:36.474Z,5.20
2023-05-25T19:30:04.079Z,5.13
2023-05-25T19:32:31.277Z,5.05
2023-05-25T19:34:58.384Z,5.13
2023-05-25T19:37:26.033Z,4.90
2023-05-25T19:39:52.876Z,4.90
2023-05-25T19:42:19.767Z,5.43
2023-05-25T19:44:46.695Z,4.65
2023-05-25T19:47:13.554Z,4.53
2023-05-25T19:49:40.390Z,4.47
2023-05-25T19:52:07.346Z,4.78
2023-05-25T19:54:34.239Z,5.30
2023-05-25T19:57:01.686Z,4.90
2023-05-25T19:59:30.209Z,4.80
2023-05-25T20:01:57.249Z,4.93
2023-05-25T20:04:24.309Z,4.85
2023-05-25T20:06:51.988Z,5.20
2023-05-25T20:09:19.838Z,5.10
2023-05-25T20:11:46.682Z,5.72
2023-05-25T20:14:13.509Z,4.82
2023-05-25T20:16:40.546Z,5.18
2023-05-25T20:19:07.863Z,4.75
2023-05-25T20:21:35.826Z,5.65
2023-05-25T20:24:03.545Z,5.82
2023-05-25T20:26:30.537Z,5.40
2023-05-25T20:29:00.544Z,5.35
2023-05-25T20:31:28.625Z,4.97
2023-05-25T20:33:55.748Z,5.75
2023-05-25T20:36:23.996Z,5.38
2023-05-25T20:38:52.306Z,5.28
2023-05-25T20:41:26.766Z,5.43
2023-05-25T20:43:54.028Z,5.72
2023-05-25T20:46:21.253Z,5.90
2023-05-25T20:48:49.119Z,5.63
2023-05-25T20:51:16.142Z,5.25
2023-05-25T20:53:43.356Z,4.75
2023-05-25T20:56:10.649Z,5.43
2023-05-25T21:01:18.714Z,5.70
2023-05-25T21:03:46.475Z,4.63
2023-05-25T21:06:14.532Z,4.95
2023-05-25T21:08:41.903Z,4.40
2023-05-25T21:11:09.847Z,5.60
2023-05-25T21:13:37.331Z,5.68
2023-05-25T21:16:04.583Z,5.10
2023-05-25T21:18:31.741Z,5.15
2023-05-25T21:20:59.455Z,5.13
2023-05-25T21:23:28.641Z,5.25
2023-05-25T21:25:56.439Z,5.30
2023-05-25T21:28:24.126Z,5.50
2023-05-25T21:31:05.782Z,5.65
2023-05-25T21:33:36.873Z,5.63
2023-05-25T21:36:04.550Z,6.00
2023-05-25T21:38:31.898Z,5.82
2023-05-25T21:41:00.156Z,5.10
2023-05-25T21:43:28.402Z,5.40
2023-05-25T21:45:57.212Z,5.15
2023-05-25T21:48:24.724Z,5.80
2023-05-25T21:50:57.970Z,6.28
2023-05-25T21:53:27.671Z,8.10
2023-05-25T21:55:54.693Z,9.05
2023-05-25T21:58:22.550Z,8.13
2023-05-25T22:00:50.564Z,8.13
2023-05-25T22:03:18.764Z,8.27
2023-05-25T22:05:46.424Z,8.65
2023-05-25T22:08:14.093Z,9.70
2023-05-25T22:10:46.222Z,9.65
2023-05-25T22:13:13.442Z,9.48
2023-05-25T22:15:43.340Z,9.38
2023-05-25T22:18:12.765Z,8.63
2023-05-25T22:20:42.521Z,9.13
2023-05-25T22:23:13.855Z,9.18
2023-05-25T22:25:41.416Z,9.40
2023-05-25T22:28:08.737Z,9.18
2023-05-25T22:30:35.982Z,10.27
2023-05-25T22:33:04.103Z,8.68
2023-05-25T22:35:31.099Z,8.98
2023-05-25T22:37:58.566Z,8.23
2023-05-25T22:40:25.762Z,7.63
2023-05-25T22:42:53.404Z,7.97
2023-05-25T22:45:21.724Z,6.70
2023-05-25T22:47:49.845Z,7.20
2023-05-25T22:50:17.236Z,7.65
2023-05-25T22:52:44.802Z,7.45
2023-05-25T22:55:13.218Z,7.30
2023-05-25T22:57:40.611Z,7.30
2023-05-25T23:00:10.766Z,7.20
2023-05-25T23:02:38.685Z,7.43
2023-05-25T23:05:07.191Z,7.30
2023-05-25T23:15:40.805Z,7.28
2023-05-25T23:18:07.722Z,8.57
2023-05-25T23:20:35.772Z,8.73
2023-05-25T23:23:03.007Z,8.15
2023-05-25T23:25:30.439Z,8.45
2023-05-25T23:27:58.083Z,8.18
2023-05-25T23:30:25.145Z,8.40
2023-05-25T23:32:52.484Z,8.55
2023-05-25T23:35:22.670Z,8.40
2023-05-25T23:37:52.325Z,8.63
2023-05-25T23:40:20.685Z,8.35
2023-05-25T23:42:47.827Z,8.52
2023-05-25T23:45:15.321Z,9.52
2023-05-25T23:47:43.462Z,8.88
2023-05-25T23:50:10.943Z,9.95
2023-05-25T23:52:37.973Z,9.05
2023-05-25T23:55:08.160Z,8.55
2023-05-25T23:57:38.341Z,9.25
